x

Buoy A01 - Mass. Bay/stellwagen (44029) Wave Buoy

4:04 - Sat 25th Mar 2017 All times are EDT. -4 hours from GMT.

  • Sig Wave height 1.6ft
  • Peak Period 4s
  • Wind
    4mph
  • Sea Temp 39°f
  • Luft Temp 35°f
  • Sea Pressure 1023.6mb
  • Buoy A01 - Mass. Bay/stellwagen
  • Buoy A01 - Mass. Bay/stellwagen

More Historic Weather Station data

Upgrade to MSW Pro to gain access to the past 30 days of data for over 8000 Wavebouys and Weather Stations around the globe.

Join Pro

Comparision Forecast

View Surf forecast
   
Sa 03/25 4:04 1.6ft 4s 4
mph
1023.6mb 39f 35f
3:04 1.6ft 4s 13 16 mph 1025.1mb 39f 35f
2:04 1.3ft 4s 16 20 mph 1024.4mb 39f 36f
1:04 1.6ft 4s 11 13 mph 1023.5mb 39f 38f
12:04 1.6ft 3s 11 13 mph 1022.8mb 39f 38f
11:04 1.3ft 3s 16 18 mph 1022.1mb 39f 38f
10:04 1ft 6s 9 11 mph 1022.4mb 39f 39f
9:04 1ft 6s 11
mph
1021.2mb 39f 39f
8:04 0.7ft  -  9
mph
1020.5mb 39f 39f
7:04 1ft 6s 11 13 mph 1019.7mb 39f 39f
6:04 1.6ft 6s 9 11 mph 1018.3mb 39f 40f
5:04 1.3ft 6s 11 13 mph 1018.4mb 39f 39f
4:04 1.6ft 7s 9 11 mph 1017.5mb 39f 39f
3:04 2ft 7s 7
mph
1016.6mb 39f 42f
2:04  -   -  7 9 mph 1016.7mb 39f 41f
12:04 2.5ft 4s 7
mph
1016.7mb 39f 41f
Fr 03/24 11:04 2.5ft 5s 4
mph
1017.3mb 39f 41f
10:04 3ft 5s 9
mph
1016.8mb 39f 41f
9:04 3ft 5s 9
mph
1016.9mb 39f 42f
8:04 3.5ft 5s 11 13 mph 1017.2mb 39f 42f
7:04 3.5ft 5s 13 16 mph 1016.8mb 39f 41f
6:04 3.5ft 5s 13 16 mph 1018.5mb 39f 41f
5:04  -   -  16 18 mph 1019.7mb 39f 40f
4:04 4.5ft 5s 20 25 mph 1020.7mb 39f 39f
3:04 5.5ft 5s 25 29 mph 1021.7mb 39f 37f
2:04 4.5ft 5s 25 29 mph 1023.6mb 39f 37f
1:04 2ft 4s 18 25 mph 1025.9mb 39f 37f
12:04 2ft 4s 18 20 mph 1028.1mb 39f 38f
11:04 1.6ft 4s 18 22 mph 1029mb 38f 37f
10:04 2.5ft 4s 20 22 mph 1029.4mb 38f 37f
9:04 1.6ft 3s 18 22 mph 1030.2mb 38f 36f
8:04  -   -  16 18 mph 1030.9mb 38f 35f
7:04 1ft 4s 13 16 mph 1031.3mb 38f 35f
6:04 1.3ft 4s 9
mph
1031.4mb 38f 35f
5:04 2ft 4s 4
mph
1031.6mb 38f 34f
4:04 1.3ft 4s  -  2 mph 1032mb 38f 33f
3:04 1.6ft 4s 4 7 mph 1032.2mb 38f 34f
2:04 2.5ft 4s 9 11 mph 1032.8mb 38f 34f
1:04 2.5ft 5s 7 9 mph 1032.9mb 38f 34f
12:04 2.5ft 4s 11 13 mph 1032.2mb 38f 35f
Do 03/23 11:04 2.5ft 4s 11 13 mph 1032.1mb 38f 35f
10:04 2.5ft 4s 13 18 mph 1031.9mb 38f 36f
9:04 2.5ft 4s 13 16 mph 1031.3mb 38f 36f
8:04 2.5ft 3s 13 16 mph 1030.2mb 39f 37f
7:04 3ft 4s 16 20 mph 1029.5mb 39f 37f
6:04 3.5ft 4s 18 22 mph 1028.6mb 39f 37f
5:04 4.5ft 3s 20 25 mph 1028.4mb 39f 37f
4:04 3ft 4s 20 22 mph 1028.4mb 39f 35f
3:04 4ft 3s 18 25 mph 1028.3mb 39f 33f
2:04 3.5ft 3s 20 27 mph 1028.4mb 39f 31f
1:04 4ft 3s 18 25 mph 1029.1mb 39f 29f
12:04 4ft 6s 18 22 mph 1029.9mb 39f 27f
11:04 4.5ft 4s 20 27 mph 1030.2mb 39f 26f
10:04 4ft 6s 20 25 mph 1030mb 39f 24f
9:04 4.5ft 6s 22 27 mph 1030mb 39f 22f
8:04 4.5ft 5s 22 27 mph 1029.5mb 39f 21f
7:04 5ft 3s 22 27 mph 1028.8mb 39f 21f
6:04 4.5ft 3s 25 31 mph 1027.8mb 39f 21f
5:04  -   -  27 34 mph 1026.7mb 39f 21f
4:04 5ft 3s 27 31 mph 1026.2mb 39f 21f
3:04 5ft 4s 25 29 mph 1026.2mb 39f 21f
2:04 6ft 4s 31 40 mph 1025.9mb 39f 21f
1:04 6ft 4s 34 40 mph 1025mb 39f 21f
12:04 5.5ft 4s 34 43 mph 1024.6mb 39f 21f
Mi 03/22 11:04 5.5ft 4s 34 45 mph 1023.9mb 39f 21f
10:04 5ft 4s 31 38 mph 1023mb 39f 22f
9:04 5.5ft 4s 34 43 mph 1021.6mb 39f 22f
8:04 6ft 4s 31 40 mph 1019.8mb 39f 23f
7:04 6ft 4s 31 38 mph 1018.6mb 39f 25f
6:04 6.5ft 5s 31 38 mph 1016.8mb 39f 26f
5:04 6ft 5s 36 47 mph 1015.9mb 39f 26f
4:04 6ft 5s 29 36 mph 1014.9mb 39f 27f
3:04 6ft 4s 34 45 mph 1013.8mb 39f 26f
2:04 5.5ft 5s 34 40 mph 1012.9mb 39f 28f
1:04 5ft 4s 31 43 mph 1012.4mb 39f 29f
12:04 5ft 4s 31 45 mph 1011.3mb 39f 30f
11:04 4.5ft 4s 31 40 mph 1009.9mb 39f 32f
10:04 4.5ft 4s 31 36 mph 1009.1mb 39f 33f
9:04 4.5ft 4s 29 36 mph 1007.4mb 38f 36f
8:04  -   -  20 27 mph 1006.5mb 38f 39f
7:04 4.5ft 11s 22 25 mph 1005.6mb 39f 39f
6:04 3.5ft 9s 18 22 mph 1005.6mb 39f 40f
5:04  -   -  18 20 mph 1005.5mb 39f 40f
4:04 3ft 10s 9
mph
1005.4mb 39f 41f
3:04 3.5ft 10s 11 13 mph 1006.4mb 40f 41f
2:04 3ft 9s 11 13 mph 1007.2mb 40f 41f
1:04 3.5ft 11s 9 11 mph 1007.5mb 40f 42f
12:04 3.5ft 10s 13 16 mph 1007.7mb 40f 43f
Di 03/21 11:04 3ft 11s 13 16 mph 1007.8mb 40f 43f
10:04 3.5ft 10s 9
mph
1007.5mb 40f 42f